Gheens, Louisiana
Current Conditions -  °F | °C
As of 2:35 AM on Sunday 23 Nov 2014 (Local Time) from KHUM Reporting Station
Overcast Overcast  
Wind Chill: 65°   Ceiling: 300
Heat Index: 65°   Visibility: 7mi
Dew Point: 64°   Wind: 10mph
Humidity: 98%   Direction: 90°E
Pressure: 29.76"   Gusts: NA
Location:  29.68°N, 90.46°W
Report Text: KHUM 230835Z AUTO 09009KT 7SM OVC003 18/18 A2976 RMK AO2 LTG DSNT W T01830180
Loading
Personal Weather Stations






























Interactive Weather Map New forecast layout! Learn more

10-Day Weather Forecast

Advertisements
Track Severe Weather on mobile